Sikinos, Greece
Current Conditions -  °F | °C
As of 2:50 PM on Monday 22 Dec 2014 (Local Time) from LGSR Reporting Station
Scattered Clouds Scattered Clouds  
Wind Chill: 55°   Ceiling: Unl
Heat Index: 55°   Visibility: 6mi
Dew Point: 34°   Wind: 21mph
Humidity: 44%   Direction: 360°N
Pressure: 30.3"   Gusts: NA
Location:  36.69°N, 25.11°E
Report Text: LGSR 221150Z 36018KT 9999 SCT025 13/01 Q1026
Loading
Personal Weather Stations






























Interactive Weather Map New forecast layout! Learn more

10-Day Weather Forecast

Advertisements
Track Severe Weather on mobile